Time;durP1;ratioP1;P1;durP2;ratioP2;P2;SDS_P1;SDS_P2;PMS_P1;PMS_P2;Temp;Humidity;BMP_temperature;BMP_pressure;BME280_temperature;BME280_humidity;BME280_pressure;Samples;Min_cycle;Max_cycle;Signal;HPM_P1;HPM_P2
2022/11/05 00:10:37;;;;;;;11.00;9.50;;;7.70;99.90;;;;;;5038595;28;20269;-79
2022/11/05 00:18:35;;;;;;;12.80;9.77;;;7.80;99.90;;;;;;5038389;28;20719;-79
2022/11/05 00:21:01;;;;;;;11.00;9.60;;;7.80;99.90;;;;;;5037721;28;20174;-81
2022/11/05 00:26:11;;;;;;;12.57;9.83;;;9.20;99.90;;;;;;5037697;28;20237;-84
2022/11/05 00:28:42;;;;;;;10.00;9.00;;;8.00;99.90;;;;;;5045011;28;20190;-82
2022/11/05 00:31:13;;;;;;;13.67;9.63;;;7.90;99.90;;;;;;5043653;28;20201;-82
2022/11/05 00:33:41;;;;;;;12.07;9.27;;;7.90;99.90;;;;;;5038824;28;20198;-81
2022/11/05 00:36:08;;;;;;;10.97;9.20;;;7.90;99.90;;;;;;5039223;28;20198;-79
2022/11/05 00:38:34;;;;;;;13.90;10.43;;;7.70;99.90;;;;;;5035202;28;20203;-79
2022/11/05 00:41:00;;;;;;;11.37;9.17;;;7.60;99.90;;;;;;5036952;28;20243;-81
2022/11/05 00:46:10;;;;;;;13.57;9.87;;;7.90;99.90;;;;;;5037153;28;20656;-81
2022/11/05 00:51:20;;;;;;;11.23;9.30;;;7.40;99.90;;;;;;5035204;28;20192;-80
2022/11/05 00:53:45;;;;;;;12.90;9.57;;;7.30;99.90;;;;;;5036555;28;20194;-83
2022/11/05 00:56:11;;;;;;;12.90;9.13;;;7.30;99.90;;;;;;5034244;28;21132;-82
2022/11/05 00:58:37;;;;;;;12.67;8.77;;;7.20;99.90;;;;;;5034080;28;20234;-81
2022/11/05 01:01:03;;;;;;;12.87;9.20;;;8.00;99.90;;;;;;5036974;28;20237;-81
2022/11/05 01:03:32;;;;;;;12.77;9.40;;;7.10;99.90;;;;;;5035133;28;20206;-80
2022/11/05 01:06:05;;;;;;;13.60;9.70;;;7.00;1.00;;;;;;5042868;28;20202;-79
2022/11/05 01:08:31;;;;;;;13.53;9.20;;;7.00;1.00;;;;;;5034691;28;20217;-81
2022/11/05 01:10:57;;;;;;;12.23;9.20;;;7.60;1.00;;;;;;5036398;28;20242;-83
2022/11/05 01:13:28;;;;;;;11.83;9.00;;;6.80;1.00;;;;;;5036158;28;20245;-78
2022/11/05 01:15:55;;;;;;;12.83;9.70;;;7.50;1.00;;;;;;5036819;28;20225;-78
2022/11/05 01:18:22;;;;;;;11.07;8.87;;;6.80;1.00;;;;;;5052489;28;20215;-83
2022/11/05 01:20:48;;;;;;;10.70;8.90;;;6.80;1.00;;;;;;5035051;28;20240;-77
2022/11/05 01:23:14;;;;;;;10.87;8.97;;;6.70;1.00;;;;;;5034530;28;20197;-79
2022/11/05 01:25:41;;;;;;;12.43;9.60;;;7.50;1.00;;;;;;5035848;28;20187;-78
2022/11/05 01:28:08;;;;;;;11.27;9.07;;;6.70;1.00;;;;;;5051619;28;20189;-79
2022/11/05 01:30:34;;;;;;;11.83;9.23;;;6.70;1.00;;;;;;5051574;28;20689;-80
2022/11/05 01:32:59;;;;;;;12.17;9.43;;;7.30;1.00;;;;;;5050632;28;20187;-82
2022/11/05 01:35:25;;;;;;;12.43;9.10;;;6.60;1.00;;;;;;5051686;28;20207;-78
2022/11/05 01:37:51;;;;;;;15.83;9.87;;;6.50;1.00;;;;;;5033132;28;20202;-80
2022/11/05 01:40:19;;;;;;;13.20;9.23;;;6.50;1.00;;;;;;5051057;28;20223;-79
2022/11/05 01:42:45;;;;;;;13.00;9.60;;;6.60;1.00;;;;;;5037975;28;20687;-81
2022/11/05 01:45:20;;;;;;;16.03;10.17;;;7.10;27.20;;;;;;5037621;28;20232;-79
2022/11/05 01:48:21;;;;;;;14.27;10.00;;;6.50;45.40;;;;;;5036563;28;20566;-78
2022/11/05 01:50:47;;;;;;;13.10;8.93;;;6.40;99.90;;;;;;5012484;28;20202;-83
2022/11/05 01:53:16;;;;;;;15.30;9.53;;;6.40;99.90;;;;;;5055682;28;20680;-79
2022/11/05 01:56:17;;;;;;;15.53;9.63;;;6.40;99.90;;;;;;5039065;28;20208;-84
2022/11/05 01:58:49;;;;;;;15.13;8.90;;;6.30;99.90;;;;;;5038410;28;20199;-81
2022/11/05 02:01:16;;;;;;;13.13;9.17;;;6.30;99.90;;;;;;5055176;28;20191;-82
2022/11/05 02:03:43;;;;;;;13.87;9.47;;;6.70;99.90;;;;;;5041261;28;20839;-80
2022/11/05 02:06:10;;;;;;;14.20;9.17;;;6.10;99.90;;;;;;5040057;28;20236;-81
2022/11/05 02:09:03;;;;;;;11.93;9.10;;;6.10;99.90;;;;;;5038883;28;20182;-83
2022/11/05 02:11:29;;;;;;;15.17;9.43;;;6.00;99.90;;;;;;5039331;28;20186;-82
2022/11/05 02:13:55;;;;;;;13.00;9.10;;;5.90;99.90;;;;;;5040919;28;20286;-81
2022/11/05 02:16:49;;;;;;;13.27;9.03;;;5.80;99.90;;;;;;5053770;28;20186;-79
2022/11/05 02:19:20;;;;;;;11.53;9.23;;;5.80;99.90;;;;;;5040018;28;20209;-81
2022/11/05 02:22:05;;;;;;;12.50;8.87;;;5.70;99.90;;;;;;5040521;28;20185;-80
2022/11/05 02:24:39;;;;;;;11.43;9.00;;;5.80;99.90;;;;;;5038872;28;20198;-81
2022/11/05 02:27:15;;;;;;;13.17;8.93;;;5.70;99.90;;;;;;5039230;28;20178;-80
2022/11/05 02:30:06;;;;;;;13.33;8.80;;;5.70;99.90;;;;;;5039768;28;20171;-84
2022/11/05 02:32:54;;;;;;;13.70;9.03;;;5.60;99.90;;;;;;5037507;28;20180;-81
2022/11/05 02:35:35;;;;;;;12.20;8.63;;;5.50;91.70;;;;;;5037766;28;20205;-79
2022/11/05 02:38:15;;;;;;;12.87;8.40;;;5.50;1.00;;;;;;5054859;28;20689;-81
2022/11/05 02:41:15;;;;;;;13.43;9.17;;;5.40;6.50;;;;;;5054134;28;20186;-81
2022/11/05 02:43:52;;;;;;;13.53;9.13;;;5.30;1.00;;;;;;5038909;28;20282;-81
2022/11/05 02:46:53;;;;;;;12.97;9.37;;;5.30;1.00;;;;;;5054511;28;20186;-83
2022/11/05 02:49:46;;;;;;;10.90;8.37;;;5.20;99.90;;;;;;5037216;28;20190;-80
2022/11/05 02:52:22;;;;;;;14.73;8.07;;;5.10;99.90;;;;;;5054738;28;20657;-80
2022/11/05 02:54:50;;;;;;;11.57;8.20;;;5.10;99.90;;;;;;5038042;28;20201;-81
2022/11/05 02:57:20;;;;;;;12.60;8.07;;;5.10;99.90;;;;;;5056076;28;20206;-81
2022/11/05 02:59:45;;;;;;;11.53;8.43;;;5.00;99.90;;;;;;5041036;28;20225;-81
2022/11/05 03:02:11;;;;;;;14.03;9.30;;;5.10;99.90;;;;;;5040902;28;20213;-83
2022/11/05 03:04:37;;;;;;;10.47;7.80;;;5.20;99.90;;;;;;5039411;28;20262;-82
2022/11/05 03:07:34;;;;;;;13.37;9.00;;;5.20;99.90;;;;;;5038919;28;20178;-79
2022/11/05 03:10:09;;;;;;;15.33;8.53;;;5.30;99.90;;;;;;5040272;28;21098;-79
2022/11/05 03:12:55;;;;;;;14.17;9.00;;;5.20;1.00;;;;;;5054188;28;20170;-79
2022/11/05 03:15:52;;;;;;;14.27;9.20;;;5.20;1.00;;;;;;5039431;28;20202;-79
2022/11/05 03:18:36;;;;;;;14.83;8.93;;;5.10;1.00;;;;;;5038086;28;20203;-80
2022/11/05 03:21:09;;;;;;;12.43;8.67;;;4.90;99.90;;;;;;5053642;28;20182;-81
2022/11/05 03:23:43;;;;;;;13.50;9.00;;;4.80;99.90;;;;;;5039494;28;20202;-80
2022/11/05 03:26:16;;;;;;;13.90;8.73;;;4.80;99.90;;;;;;5040635;28;20217;-82
2022/11/05 03:28:47;;;;;;;12.73;8.87;;;4.80;99.90;;;;;;5037851;28;20182;-80
2022/11/05 03:31:15;;;;;;;15.17;9.40;;;4.90;99.90;;;;;;5052788;28;20273;-80
2022/11/05 03:33:42;;;;;;;12.70;8.67;;;4.80;99.90;;;;;;5052565;28;20205;-81
2022/11/05 03:36:16;;;;;;;12.13;8.90;;;4.60;1.00;;;;;;5037263;28;20237;-81
2022/11/05 03:38:46;;;;;;;12.17;8.77;;;4.50;24.20;;;;;;5036989;28;21211;-79
2022/11/05 03:41:15;;;;;;;13.37;8.60;;;4.50;91.50;;;;;;5035065;28;20182;-81
2022/11/05 03:43:49;;;;;;;12.53;7.97;;;5.70;54.20;;;;;;5035086;28;20907;-82
2022/11/05 03:46:19;;;;;;;12.40;8.67;;;4.60;18.80;;;;;;5034238;28;20194;-84
2022/11/05 03:48:51;;;;;;;14.20;9.50;;;4.50;1.00;;;;;;5037091;28;20264;-80
2022/11/05 03:51:22;;;;;;;14.23;8.90;;;4.50;20.10;;;;;;5044402;28;20879;-79
2022/11/05 03:53:59;;;;;;;11.23;8.53;;;4.50;53.20;;;;;;5037435;28;20204;-82
2022/11/05 03:56:31;;;;;;;12.07;8.40;;;4.40;1.00;;;;;;5035064;28;20197;-80
2022/11/05 03:58:59;;;;;;;11.53;7.77;;;4.40;1.00;;;;;;5036416;28;20206;-80
2022/11/05 04:01:26;;;;;;;12.37;8.33;;;4.40;1.00;;;;;;5036428;28;20179;-83
2022/11/05 04:03:51;;;;;;;13.23;8.73;;;4.50;99.90;;;;;;5042934;28;20701;-81
2022/11/05 04:14:29;;;;;;;14.23;8.13;;;4.20;89.30;;;;;;5038249;28;20283;-80
2022/11/05 04:17:08;;;;;;;14.70;8.60;;;4.30;99.90;;;;;;5038395;28;20182;-80
2022/11/05 04:25:20;;;;;;;12.73;8.00;;;4.20;99.90;;;;;;5002672;28;20213;-81
2022/11/05 04:27:46;;;;;;;12.47;7.83;;;4.30;1.00;;;;;;5043694;28;20194;-81
2022/11/05 04:30:17;;;;;;;12.07;7.97;;;4.20;99.90;;;;;;5037009;28;20178;-82
2022/11/05 04:33:01;;;;;;;13.03;8.30;;;4.10;99.90;;;;;;5043483;28;20733;-80
2022/11/05 04:35:34;;;;;;;11.03;7.60;;;4.10;99.90;;;;;;5052289;28;20685;-80
2022/11/05 04:38:00;;;;;;;11.57;7.33;;;4.00;99.90;;;;;;5038458;28;20206;-79
2022/11/05 04:40:27;;;;;;;11.03;7.50;;;4.10;99.90;;;;;;5037424;28;20210;-84
2022/11/05 04:42:54;;;;;;;13.43;7.90;;;4.00;99.90;;;;;;5036100;28;20178;-80
2022/11/05 04:45:20;;;;;;;12.47;8.23;;;3.90;99.90;;;;;;5043836;28;20209;-80
2022/11/05 04:47:46;;;;;;;10.80;7.70;;;3.90;99.90;;;;;;5042958;28;20221;-82
2022/11/05 04:50:12;;;;;;;11.93;8.13;;;3.90;99.90;;;;;;5051822;28;20213;-81
2022/11/05 04:52:38;;;;;;;11.90;7.30;;;3.80;99.90;;;;;;5038375;28;20553;-81
2022/11/05 04:55:04;;;;;;;12.93;7.63;;;4.00;1.00;;;;;;5035145;28;20903;-80
2022/11/05 04:57:30;;;;;;;12.60;7.63;;;4.00;99.90;;;;;;5052562;28;20203;-81
2022/11/05 04:59:55;;;;;;;13.20;9.83;;;3.90;99.90;;;;;;5035591;28;20676;-82
2022/11/05 05:02:21;;;;;;;15.70;9.53;;;5.20;99.90;;;;;;5052381;28;20233;-82
2022/11/05 05:04:46;;;;;;;13.77;8.90;;;3.90;99.90;;;;;;5037627;28;20225;-81
2022/11/05 05:07:12;;;;;;;12.73;8.90;;;3.80;99.90;;;;;;5035253;28;20171;-82
2022/11/05 05:09:38;;;;;;;11.93;9.23;;;3.80;99.90;;;;;;5035870;28;20175;-82
2022/11/05 05:12:03;;;;;;;12.83;8.57;;;2.80;99.90;;;;;;5051397;28;20661;-81
2022/11/05 05:14:29;;;;;;;16.47;10.03;;;3.80;99.90;;;;;;5035476;28;20264;-79
2022/11/05 05:16:54;;;;;;;14.90;11.13;;;3.80;99.90;;;;;;5037729;28;20177;-81
2022/11/05 05:19:20;;;;;;;15.97;10.83;;;3.70;99.90;;;;;;5056463;28;20212;-80
2022/11/05 05:21:46;;;;;;;14.27;9.13;;;3.70;99.90;;;;;;5038988;28;20232;-82
2022/11/05 05:24:15;;;;;;;13.37;8.27;;;3.70;99.90;;;;;;5038195;28;20198;-82
2022/11/05 05:26:43;;;;;;;12.77;8.20;;;3.70;99.90;;;;;;5056947;28;20232;-80
2022/11/05 05:29:10;;;;;;;12.67;7.80;;;3.70;99.90;;;;;;5040131;28;20262;-82
2022/11/05 05:31:36;;;;;;;14.23;8.50;;;3.70;99.90;;;;;;5039588;28;20186;-79
2022/11/05 05:34:03;;;;;;;11.57;7.73;;;3.70;99.90;;;;;;5038483;28;20202;-78
2022/11/05 05:36:29;;;;;;;11.50;7.70;;;3.70;47.90;;;;;;5057091;28;20178;-83
2022/11/05 05:38:54;;;;;;;9.70;6.97;;;3.80;99.90;;;;;;5040163;28;20213;-83
2022/11/05 05:41:20;;;;;;;10.60;7.13;;;3.70;99.90;;;;;;5057312;28;21254;-79
2022/11/05 05:43:46;;;;;;;10.27;6.63;;;3.60;1.00;;;;;;5052340;28;20203;-82
2022/11/05 05:46:14;;;;;;;8.53;6.80;;;3.60;1.00;;;;;;5054979;28;20186;-80
2022/11/05 05:48:41;;;;;;;11.23;7.20;;;3.70;1.00;;;;;;5038879;28;20183;-80
2022/11/05 05:51:10;;;;;;;10.70;6.77;;;3.70;1.00;;;;;;5041840;28;20309;-84
2022/11/05 05:53:36;;;;;;;11.50;7.00;;;3.60;1.00;;;;;;5037857;28;20282;-80
2022/11/05 05:56:03;;;;;;;11.07;6.30;;;3.60;1.00;;;;;;5039237;28;20559;-78
2022/11/05 05:58:37;;;;;;;10.93;6.73;;;3.50;1.00;;;;;;5038391;28;20225;-81
2022/11/05 06:01:05;;;;;;;10.87;6.80;;;4.20;1.00;;;;;;5038424;28;20255;-79
2022/11/05 06:03:30;;;;;;;10.97;6.27;;;3.50;1.00;;;;;;5039140;28;20203;-81
2022/11/05 06:06:04;;;;;;;11.40;6.80;;;3.60;1.00;;;;;;5038123;28;20206;-82
2022/11/05 06:08:31;;;;;;;8.57;6.50;;;3.60;1.00;;;;;;5047482;28;20183;-81
2022/11/05 06:10:58;;;;;;;10.30;6.43;;;3.50;1.00;;;;;;5040560;28;20267;-80
2022/11/05 06:13:24;;;;;;;8.77;6.00;;;3.50;1.00;;;;;;5057305;28;20263;-82
2022/11/05 06:15:50;;;;;;;9.87;6.17;;;3.40;1.00;;;;;;5041099;28;20279;-85
2022/11/05 06:18:16;;;;;;;8.80;5.83;;;3.40;1.00;;;;;;5042310;28;20286;-80
2022/11/05 06:20:41;;;;;;;7.90;6.20;;;3.40;1.00;;;;;;5055781;28;20585;-80
2022/11/05 06:23:07;;;;;;;13.77;6.40;;;3.40;1.00;;;;;;5043506;28;20232;-82
2022/11/05 06:25:33;;;;;;;8.47;5.87;;;3.40;1.00;;;;;;5037483;28;20174;-84
2022/11/05 06:27:58;;;;;;;15.60;6.10;;;3.40;1.00;;;;;;5039310;28;20182;-79
2022/11/05 06:30:24;;;;;;;9.07;5.83;;;3.50;30.70;;;;;;5036945;28;20214;-83
2022/11/05 06:32:49;;;;;;;8.70;6.50;;;3.50;8.50;;;;;;5055185;28;20189;-80
2022/11/05 06:35:15;;;;;;;10.87;6.30;;;3.50;44.10;;;;;;5037351;28;20217;-83
2022/11/05 06:37:41;;;;;;;9.77;6.40;;;3.50;23.30;;;;;;5038171;28;20232;-82
2022/11/05 06:40:07;;;;;;;11.17;6.33;;;3.50;1.00;;;;;;5039280;28;20182;-79
2022/11/05 06:42:33;;;;;;;12.03;6.63;;;3.60;99.90;;;;;;5038802;28;20231;-81
2022/11/05 06:44:59;;;;;;;9.73;6.27;;;3.60;39.30;;;;;;5033715;28;20214;-80
2022/11/05 06:47:24;;;;;;;15.07;7.27;;;3.70;12.10;;;;;;5053431;28;20598;-84
2022/11/05 06:49:50;;;;;;;9.73;7.23;;;3.70;13.50;;;;;;5037032;28;20198;-79
2022/11/05 06:52:15;;;;;;;12.20;6.70;;;3.80;94.30;;;;;;5053042;28;20187;-81
2022/11/05 06:54:42;;;;;;;9.83;7.03;;;3.70;9.30;;;;;;5037126;28;20674;-85
2022/11/05 06:57:10;;;;;;;10.37;7.30;;;3.60;1.00;;;;;;5035138;28;20194;-79
2022/11/05 06:59:37;;;;;;;11.93;7.37;;;3.50;1.00;;;;;;5055301;28;20183;-79
2022/11/05 07:02:03;;;;;;;10.47;6.43;;;3.60;99.90;;;;;;5047327;28;20178;-81
2022/11/05 07:04:28;;;;;;;10.80;6.70;;;3.70;99.90;;;;;;5037365;28;20229;-80
2022/11/05 07:06:54;;;;;;;11.30;7.40;;;3.60;99.90;;;;;;5031657;28;20195;-81
2022/11/05 07:09:20;;;;;;;10.50;6.83;;;3.60;99.90;;;;;;5030555;28;20645;-81
2022/11/05 07:11:45;;;;;;;10.77;7.23;;;3.70;99.90;;;;;;5050326;28;20178;-79
2022/11/05 07:14:11;;;;;;;11.30;6.60;;;4.10;99.90;;;;;;5037553;28;20202;-79
2022/11/05 07:16:36;;;;;;;11.33;6.40;;;3.70;99.90;;;;;;5036865;28;20230;-80
2022/11/05 07:19:02;;;;;;;11.80;6.80;;;3.80;99.90;;;;;;5027868;28;20214;-80
2022/11/05 07:21:28;;;;;;;11.80;6.57;;;3.70;99.90;;;;;;5049718;28;20201;-82
2022/11/05 07:23:53;;;;;;;10.03;6.80;;;4.50;99.90;;;;;;5051007;28;20205;-79
2022/11/05 07:26:19;;;;;;;10.40;6.47;;;3.80;99.90;;;;;;5037814;28;20183;-82
2022/11/05 07:28:45;;;;;;;11.63;6.90;;;3.90;99.90;;;;;;5038377;28;20194;-80
2022/11/05 07:31:10;;;;;;;8.83;6.50;;;5.10;99.90;;;;;;5039830;28;20240;-80
2022/11/05 07:33:36;;;;;;;12.97;6.67;;;4.10;99.90;;;;;;5036353;28;20213;-79
2022/11/05 07:36:01;;;;;;;10.50;6.73;;;4.50;99.90;;;;;;5052108;28;21126;-80
2022/11/05 07:38:27;;;;;;;12.07;7.23;;;4.10;99.90;;;;;;5052676;28;20238;-79
2022/11/05 07:40:53;;;;;;;9.67;6.70;;;4.30;99.90;;;;;;5036769;28;20174;-82
2022/11/05 07:43:19;;;;;;;11.47;7.23;;;4.30;99.90;;;;;;5053894;28;20666;-78
2022/11/05 07:45:45;;;;;;;12.37;7.60;;;4.40;99.90;;;;;;5036880;28;20182;-81
2022/11/05 07:48:11;;;;;;;14.57;8.97;;;4.60;1.00;;;;;;5038319;28;20193;-80
2022/11/05 07:50:37;;;;;;;12.43;8.07;;;4.60;99.90;;;;;;5032914;28;20198;-81
2022/11/05 07:53:13;;;;;;;10.47;8.10;;;4.70;1.00;;;;;;5033967;28;20201;-81
2022/11/05 07:55:40;;;;;;;12.77;7.33;;;4.80;1.00;;;;;;5037284;28;20715;-78
2022/11/05 07:58:06;;;;;;;11.20;8.33;;;4.90;1.00;;;;;;5038254;28;20213;-80
2022/11/05 08:00:32;;;;;;;12.83;8.37;;;5.20;1.00;;;;;;5036947;28;20179;-81
2022/11/05 08:02:59;;;;;;;13.87;9.00;;;5.00;1.00;;;;;;5049510;28;20187;-84
2022/11/05 08:05:24;;;;;;;15.73;8.47;;;5.10;1.00;;;;;;5036847;28;20593;-82
2022/11/05 08:07:51;;;;;;;13.83;9.13;;;5.20;1.00;;;;;;5037352;28;20201;-82
2022/11/05 08:10:17;;;;;;;25.30;16.67;;;5.20;1.00;;;;;;5053813;28;20773;-79
2022/11/05 08:12:43;;;;;;;19.13;12.60;;;5.30;1.00;;;;;;5036117;28;20194;-81
2022/11/05 08:15:09;;;;;;;20.70;12.57;;;6.20;1.00;;;;;;5035009;28;20677;-81
2022/11/05 08:17:35;;;;;;;20.73;12.70;;;5.60;1.00;;;;;;5038004;28;20202;-79
2022/11/05 08:20:01;;;;;;;21.23;12.03;;;5.70;99.90;;;;;;5037285;28;20174;-80
2022/11/05 08:22:26;;;;;;;16.50;10.97;;;6.20;99.90;;;;;;5053235;28;20564;-79
2022/11/05 08:24:52;;;;;;;18.63;11.57;;;6.10;1.00;;;;;;5036671;28;20238;-80
2022/11/05 08:27:18;;;;;;;14.77;9.57;;;6.80;99.90;;;;;;5052824;28;20178;-80
2022/11/05 08:29:43;;;;;;;13.17;6.67;;;8.30;1.00;;;;;;5035874;28;20179;-79
2022/11/05 08:32:09;;;;;;;11.40;6.93;;;8.90;1.00;;;;;;5051876;28;20209;-82
2022/11/05 08:34:34;;;;;;;11.10;6.23;;;8.20;99.90;;;;;;5035931;28;20218;-82
2022/11/05 08:37:01;;;;;;;10.70;6.20;;;8.20;99.90;;;;;;5035567;28;20176;-80
2022/11/05 08:39:27;;;;;;;9.90;5.43;;;8.20;99.90;;;;;;5035522;28;20201;-79
2022/11/05 08:41:52;;;;;;;10.67;5.63;;;7.90;99.90;;;;;;5035942;28;20191;-80
2022/11/05 08:44:18;;;;;;;7.83;5.40;;;8.70;99.90;;;;;;5034275;28;20248;-81
2022/11/05 08:46:44;;;;;;;9.33;5.83;;;7.80;99.90;;;;;;5050584;28;20187;-81
2022/11/05 08:49:09;;;;;;;10.87;6.33;;;8.50;99.90;;;;;;5036892;28;20203;-81
2022/11/05 08:51:35;;;;;;;63.80;20.77;;;7.80;99.90;;;;;;5035629;28;20217;-84
2022/11/05 08:54:00;;;;;;;22.63;10.53;;;7.90;99.90;;;;;;5033442;28;20603;-81
2022/11/05 08:56:27;;;;;;;20.47;9.37;;;8.30;99.90;;;;;;5048789;28;20307;-79
2022/11/05 08:58:53;;;;;;;16.40;8.27;;;7.90;99.90;;;;;;5034977;28;20673;-80
2022/11/05 09:01:18;;;;;;;14.67;7.40;;;8.30;99.90;;;;;;5051171;28;20189;-80
2022/11/05 09:03:44;;;;;;;13.23;6.23;;;8.00;99.90;;;;;;5034243;28;20190;-82
2022/11/05 09:06:10;;;;;;;10.80;7.43;;;8.00;99.90;;;;;;5038885;28;20266;-81
2022/11/05 09:08:35;;;;;;;15.20;7.50;;;8.50;99.90;;;;;;5040529;28;20178;-80
2022/11/05 09:11:01;;;;;;;12.80;7.23;;;8.40;99.90;;;;;;5054722;28;20206;-81
2022/11/05 09:13:27;;;;;;;10.83;7.20;;;8.20;99.90;;;;;;5039652;28;20211;-80
2022/11/05 09:15:52;;;;;;;11.87;7.07;;;8.70;99.90;;;;;;5041415;28;20187;-81
2022/11/05 09:18:19;;;;;;;13.50;7.37;;;8.60;99.90;;;;;;5037999;28;20619;-81
2022/11/05 09:20:45;;;;;;;13.00;7.73;;;8.40;99.90;;;;;;5041874;28;20186;-82
2022/11/05 09:23:13;;;;;;;15.50;8.03;;;8.60;99.90;;;;;;5039840;28;20186;-82
2022/11/05 09:25:39;;;;;;;11.73;7.27;;;8.60;96.20;;;;;;5028853;28;20646;-81
2022/11/05 09:28:17;;;;;;;11.83;7.50;;;8.60;62.30;;;;;;5045404;28;20265;-81
2022/11/05 09:30:48;;;;;;;14.00;7.37;;;8.70;67.70;;;;;;5041491;28;20190;-80
2022/11/05 09:33:15;;;;;;;10.97;7.23;;;8.70;56.00;;;;;;5048087;28;20469;-81
2022/11/05 09:35:41;;;;;;;11.77;6.73;;;9.00;46.90;;;;;;5034168;28;20249;-80
2022/11/05 09:38:07;;;;;;;12.40;7.20;;;8.90;40.20;;;;;;5033907;28;20214;-80
2022/11/05 09:40:40;;;;;;;10.83;6.90;;;9.10;37.70;;;;;;5034281;28;20182;-81
2022/11/05 09:43:06;;;;;;;10.80;6.43;;;9.40;22.20;;;;;;5031246;28;20553;-82
2022/11/05 09:45:34;;;;;;;11.43;6.57;;;9.70;11.60;;;;;;5031290;28;20183;-80
2022/11/05 09:48:11;;;;;;;12.67;7.13;;;10.00;1.00;;;;;;5036825;28;20264;-81
2022/11/05 09:50:43;;;;;;;9.97;5.93;;;10.20;1.00;;;;;;5031273;28;20269;-80
2022/11/05 09:53:16;;;;;;;8.43;5.73;;;10.20;1.00;;;;;;5030866;28;20273;-79
2022/11/05 09:55:44;;;;;;;13.60;5.67;;;10.20;1.00;;;;;;5033883;28;20191;-80
2022/11/05 09:58:23;;;;;;;8.80;5.67;;;10.30;1.00;;;;;;5033585;28;20205;-79
2022/11/05 10:00:51;;;;;;;9.20;6.00;;;10.30;1.00;;;;;;5034450;28;20178;-83
2022/11/05 10:03:28;;;;;;;7.67;5.60;;;10.30;1.00;;;;;;5046878;28;20249;-80
2022/11/05 10:06:08;;;;;;;7.57;5.47;;;10.00;1.00;;;;;;5053282;28;20182;-81
2022/11/05 10:08:45;;;;;;;12.87;5.83;;;9.90;1.00;;;;;;5035515;28;20183;-82
2022/11/05 10:11:22;;;;;;;9.13;6.03;;;9.90;1.00;;;;;;5033779;28;20186;-80
2022/11/05 10:13:55;;;;;;;8.03;6.00;;;10.10;1.00;;;;;;5034948;28;20210;-80
2022/11/05 10:16:38;;;;;;;11.67;6.03;;;10.20;1.00;;;;;;5028511;28;20663;-83
2022/11/05 10:19:23;;;;;;;10.97;6.07;;;10.50;1.00;;;;;;5037028;28;20251;-81
2022/11/05 10:21:49;;;;;;;10.07;5.43;;;10.60;1.00;;;;;;5029566;28;20662;-79
2022/11/05 10:24:18;;;;;;;10.33;5.67;;;10.70;1.00;;;;;;5030880;28;20194;-81
2022/11/05 10:26:51;;;;;;;11.20;6.40;;;10.70;1.00;;;;;;5036457;28;20179;-80
2022/11/05 10:29:29;;;;;;;34.17;15.40;;;10.70;1.00;;;;;;5036109;28;20723;-79
2022/11/05 10:31:57;;;;;;;69.50;31.93;;;10.40;1.00;;;;;;5031805;28;20768;-80
2022/11/05 10:34:27;;;;;;;35.30;16.00;;;11.00;1.00;;;;;;5033012;28;20205;-80
2022/11/05 10:36:53;;;;;;;28.40;13.63;;;10.00;1.00;;;;;;5033551;28;20662;-81
2022/11/05 10:39:20;;;;;;;14.63;8.10;;;9.90;1.00;;;;;;5051618;28;20216;-80
2022/11/05 10:42:17;;;;;;;12.93;7.33;;;10.20;1.00;;;;;;5035014;28;20224;-79
2022/11/05 10:44:54;;;;;;;20.97;8.80;;;9.90;1.00;;;;;;4990712;28;20242;-80
2022/11/05 10:47:49;;;;;;;12.10;7.00;;;10.40;1.00;;;;;;5033846;28;20186;-80
2022/11/05 10:50:33;;;;;;;18.03;7.50;;;10.20;1.00;;;;;;5046662;28;20182;-80
2022/11/05 10:53:02;;;;;;;12.20;6.20;;;10.40;1.00;;;;;;5033968;28;20866;-80
2022/11/05 10:55:50;;;;;;;10.73;5.37;;;10.60;1.00;;;;;;5048484;28;20745;-79
2022/11/05 10:58:20;;;;;;;12.23;6.20;;;10.70;1.00;;;;;;5039384;28;20222;-79
2022/11/05 11:01:01;;;;;;;9.90;5.43;;;10.80;1.00;;;;;;5028138;28;20650;-79
2022/11/05 11:03:46;;;;;;;11.47;5.60;;;10.70;1.00;;;;;;5031035;28;20681;-82
2022/11/05 11:06:20;;;;;;;9.13;5.33;;;10.80;1.00;;;;;;5028019;28;20241;-82
2022/11/05 11:08:48;;;;;;;9.20;5.80;;;11.00;1.00;;;;;;5023573;28;20662;-82
2022/11/05 11:11:31;;;;;;;15.10;8.53;;;11.00;1.00;;;;;;5046759;28;20183;-82
2022/11/05 11:13:58;;;;;;;12.37;7.13;;;11.00;1.00;;;;;;5033015;28;20210;-82
2022/11/05 11:16:27;;;;;;;9.27;5.00;;;11.10;1.00;;;;;;5046358;28;20576;-83
2022/11/05 11:18:56;;;;;;;14.00;5.93;;;11.40;1.00;;;;;;5035681;28;20249;-82
2022/11/05 11:21:22;;;;;;;11.00;6.60;;;11.30;1.00;;;;;;5041201;28;20205;-82
2022/11/05 11:24:03;;;;;;;9.43;6.60;;;11.20;1.00;;;;;;5050836;28;20207;-82
2022/11/05 11:26:32;;;;;;;11.13;6.33;;;11.30;1.00;;;;;;5031258;28;20178;-82
2022/11/05 11:28:59;;;;;;;8.98;4.57;;;11.40;1.00;;;;;;5034724;28;20177;-82
2022/11/05 11:31:28;;;;;;;18.48;5.70;;;11.30;1.00;;;;;;5046204;28;20201;-80
2022/11/05 11:34:04;;;;;;;8.03;5.33;;;11.50;1.00;;;;;;5045246;28;20207;-79
2022/11/05 11:36:41;;;;;;;9.60;5.80;;;11.30;1.00;;;;;;5033737;28;20185;-80
2022/11/05 11:39:16;;;;;;;10.13;6.25;;;11.00;1.00;;;;;;5049863;28;20688;-80
2022/11/05 11:41:44;;;;;;;9.03;4.83;;;11.00;1.00;;;;;;5030167;28;20181;-82
2022/11/05 11:44:25;;;;;;;8.40;4.83;;;10.90;1.00;;;;;;5052348;28;20252;-84
2022/11/05 11:46:54;;;;;;;10.88;6.30;;;10.90;1.00;;;;;;5034407;28;20174;-83
2022/11/05 11:49:49;;;;;;;10.07;6.07;;;11.50;1.00;;;;;;5043486;28;20748;-80
2022/11/05 11:52:20;;;;;;;11.53;6.10;;;10.70;1.00;;;;;;5018757;28;20228;-81
2022/11/05 11:54:45;;;;;;;9.30;5.03;;;11.10;1.00;;;;;;5033073;28;20758;-80
2022/11/05 11:57:26;;;;;;;9.13;5.20;;;10.50;1.00;;;;;;5033381;28;20224;-82
2022/11/05 11:59:54;;;;;;;9.40;5.13;;;10.30;1.00;;;;;;5036849;28;20197;-81
2022/11/05 12:02:42;;;;;;;11.10;6.73;;;10.10;1.00;;;;;;5032498;28;20697;-81
2022/11/05 12:05:26;;;;;;;9.93;5.60;;;10.20;1.00;;;;;;5033267;28;20240;-81
2022/11/05 12:08:06;;;;;;;10.30;5.83;;;10.20;1.00;;;;;;5034477;28;20197;-82
2022/11/05 12:10:52;;;;;;;14.87;6.00;;;10.30;1.00;;;;;;5035958;28;20178;-82
2022/11/05 12:13:18;;;;;;;9.77;5.00;;;10.20;1.00;;;;;;5035964;28;20197;-82
2022/11/05 12:15:56;;;;;;;10.33;6.00;;;10.40;1.00;;;;;;5033742;28;20190;-83
2022/11/05 12:18:41;;;;;;;10.57;5.23;;;10.80;1.00;;;;;;5033103;28;20202;-84
2022/11/05 12:21:13;;;;;;;10.10;5.50;;;10.80;1.00;;;;;;5027261;28;20182;-81
2022/11/05 12:23:46;;;;;;;12.20;6.50;;;11.40;1.00;;;;;;5034450;28;20208;-78
2022/11/05 12:26:20;;;;;;;9.60;5.78;;;11.10;1.00;;;;;;5025407;28;20706;-82
2022/11/05 12:29:07;;;;;;;7.60;4.25;;;11.10;1.00;;;;;;5034112;28;20325;-80
2022/11/05 12:31:47;;;;;;;7.13;4.40;;;11.10;1.00;;;;;;5043336;28;20221;-79
2022/11/05 12:34:32;;;;;;;7.80;5.37;;;11.10;1.00;;;;;;5029944;28;20558;-80
2022/11/05 12:37:34;;;;;;;7.30;4.60;;;11.10;1.00;;;;;;5036155;28;20194;-79
2022/11/05 12:40:05;;;;;;;5.97;3.53;;;10.90;1.00;;;;;;5049054;28;20272;-82
2022/11/05 12:42:52;;;;;;;6.37;4.37;;;10.80;1.00;;;;;;5036535;28;20270;-81
2022/11/05 12:45:47;;;;;;;7.73;3.90;;;10.80;1.00;;;;;;5024143;28;20206;-81
2022/11/05 12:48:30;;;;;;;7.82;3.72;;;10.90;1.00;;;;;;5023409;28;20658;-81
2022/11/05 12:51:35;;;;;;;5.50;3.27;;;10.90;1.00;;;;;;5044068;28;20666;-81
2022/11/05 12:54:24;;;;;;;4.80;3.00;;;11.10;1.00;;;;;;5010481;28;20237;-82
2022/11/05 12:56:57;;;;;;;5.70;3.27;;;11.00;1.00;;;;;;5030440;28;20179;-81
2022/11/05 12:59:42;;;;;;;4.03;2.90;;;11.00;1.00;;;;;;5031300;28;20217;-81
2022/11/05 13:03:00;;;;;;;6.53;2.73;;;10.90;1.00;;;;;;5032818;28;20633;-84
2022/11/05 13:05:40;;;;;;;4.63;2.53;;;11.00;1.00;;;;;;4996122;28;20226;-78
2022/11/05 13:08:14;;;;;;;4.67;2.60;;;11.00;1.00;;;;;;5032280;28;20308;-79
2022/11/05 13:10:51;;;;;;;5.53;2.43;;;10.90;1.00;;;;;;5034478;28;20189;-79
2022/11/05 13:13:37;;;;;;;5.07;2.50;;;10.90;1.00;;;;;;5034451;28;20645;-79
2022/11/05 13:16:39;;;;;;;4.73;2.40;;;10.90;1.00;;;;;;5049932;28;20270;-78
2022/11/05 13:19:26;;;;;;;7.27;3.27;;;10.90;1.00;;;;;;5034720;28;20259;-80
2022/11/05 13:21:56;;;;;;;6.40;2.93;;;11.00;1.00;;;;;;5033781;28;20258;-80
2022/11/05 13:24:38;;;;;;;3.97;2.43;;;11.00;1.00;;;;;;5033244;28;20206;-80
2022/11/05 13:27:25;;;;;;;7.17;2.47;;;11.00;1.00;;;;;;5031813;28;20175;-80
2022/11/05 13:30:02;;;;;;;6.93;2.23;;;10.90;1.00;;;;;;5034361;28;20282;-78
2022/11/05 13:32:31;;;;;;;4.67;2.17;;;10.80;1.00;;;;;;5032152;28;20557;-81
2022/11/05 13:35:00;;;;;;;3.33;2.00;;;10.80;1.00;;;;;;5032460;28;20209;-80
2022/11/05 13:40:19;;;;;;;8.53;5.00;;;11.00;1.00;;;;;;5034912;28;20701;-79
2022/11/05 13:43:11;;;;;;;9.17;5.30;;;11.10;1.00;;;;;;5036805;28;20233;-81
2022/11/05 13:45:55;;;;;;;12.37;7.30;;;11.20;1.00;;;;;;5038362;28;20186;-79
2022/11/05 13:48:43;;;;;;;11.23;6.67;;;11.30;1.00;;;;;;5037160;28;20198;-79
2022/11/05 13:51:17;;;;;;;17.37;9.17;;;11.30;1.00;;;;;;5039451;28;20186;-80
2022/11/05 13:54:19;;;;;;;11.90;6.37;;;11.20;1.00;;;;;;5037389;28;20623;-82